sensor_id;sensor_type;location;lat;lon;timestamp;pressure;altitude;pressure_sealevel;temperature;humidity
60974;BME280;46846;51.528;5.076;2022-07-26T00:00:54;100803.88;;;23.09;40.34
60974;BME280;46846;51.528;5.076;2022-07-26T00:03:20;100801.44;;;23.06;40.38
60974;BME280;46846;51.528;5.076;2022-07-26T00:05:45;100807.00;;;23.04;40.59
60974;BME280;46846;51.528;5.076;2022-07-26T00:08:10;100801.72;;;23.03;40.63
60974;BME280;46846;51.528;5.076;2022-07-26T00:10:45;100807.41;;;23.00;40.58
60974;BME280;46846;51.528;5.076;2022-07-26T00:13:11;100805.97;;;22.96;40.73
60974;BME280;46846;51.528;5.076;2022-07-26T00:15:37;100804.41;;;22.93;40.74
60974;BME280;46846;51.528;5.076;2022-07-26T00:18:03;100804.28;;;22.94;41.54
60974;BME280;46846;51.528;5.076;2022-07-26T00:20:29;100808.81;;;22.94;40.64
60974;BME280;46846;51.528;5.076;2022-07-26T00:22:54;100809.09;;;22.91;40.69
60974;BME280;46846;51.528;5.076;2022-07-26T00:25:20;100803.94;;;22.88;40.59
60974;BME280;46846;51.528;5.076;2022-07-26T00:27:46;100806.06;;;22.84;40.78
60974;BME280;46846;51.528;5.076;2022-07-26T00:30:11;100810.63;;;22.84;41.18
60974;BME280;46846;51.528;5.076;2022-07-26T00:32:37;100806.19;;;22.83;40.71
60974;BME280;46846;51.528;5.076;2022-07-26T00:35:03;100813.59;;;22.80;40.76
60974;BME280;46846;51.528;5.076;2022-07-26T00:37:29;100820.91;;;22.80;40.81
60974;BME280;46846;51.528;5.076;2022-07-26T00:39:54;100821.03;;;22.78;41.14
60974;BME280;46846;51.528;5.076;2022-07-26T00:42:20;100826.69;;;22.75;40.96
60974;BME280;46846;51.528;5.076;2022-07-26T00:44:46;100832.28;;;22.74;41.18
60974;BME280;46846;51.528;5.076;2022-07-26T00:47:11;100823.38;;;22.72;40.95
60974;BME280;46846;51.528;5.076;2022-07-26T00:49:37;100830.09;;;22.67;41.19
60974;BME280;46846;51.528;5.076;2022-07-26T00:52:07;100826.66;;;22.65;40.90
60974;BME280;46846;51.528;5.076;2022-07-26T00:54:33;100828.63;;;22.63;41.06
60974;BME280;46846;51.528;5.076;2022-07-26T00:56:59;100829.75;;;22.61;41.05
60974;BME280;46846;51.528;5.076;2022-07-26T00:59:24;100827.19;;;22.59;41.20
60974;BME280;46846;51.528;5.076;2022-07-26T01:01:50;100824.47;;;22.59;41.46
60974;BME280;46846;51.528;5.076;2022-07-26T01:04:15;100821.75;;;22.59;41.47
60974;BME280;46846;51.528;5.076;2022-07-26T01:06:41;100818.56;;;22.54;41.21
60974;BME280;46846;51.528;5.076;2022-07-26T01:09:07;100813.16;;;22.54;41.16
60974;BME280;46846;51.528;5.076;2022-07-26T01:11:32;100821.28;;;22.54;41.44
60974;BME280;46846;51.528;5.076;2022-07-26T01:13:58;100809.59;;;22.53;41.76
60974;BME280;46846;51.528;5.076;2022-07-26T01:16:23;100810.81;;;22.49;41.90
60974;BME280;46846;51.528;5.076;2022-07-26T01:18:49;100809.22;;;22.47;41.69
60974;BME280;46846;51.528;5.076;2022-07-26T01:21:15;100808.50;;;22.45;41.70
60974;BME280;46846;51.528;5.076;2022-07-26T01:23:41;100802.47;;;22.41;41.92
60974;BME280;46846;51.528;5.076;2022-07-26T01:26:08;100800.00;;;22.38;41.68
60974;BME280;46846;51.528;5.076;2022-07-26T01:28:38;100805.31;;;22.39;41.76
60974;BME280;46846;51.528;5.076;2022-07-26T01:31:05;100799.28;;;22.36;42.13
60974;BME280;46846;51.528;5.076;2022-07-26T01:33:31;100801.00;;;22.37;42.10
60974;BME280;46846;51.528;5.076;2022-07-26T01:35:57;100805.09;;;22.31;42.08
60974;BME280;46846;51.528;5.076;2022-07-26T01:38:24;100804.97;;;22.33;42.28
60974;BME280;46846;51.528;5.076;2022-07-26T01:40:50;100800.94;;;22.27;42.38
60974;BME280;46846;51.528;5.076;2022-07-26T01:43:15;100806.38;;;22.27;42.62
60974;BME280;46846;51.528;5.076;2022-07-26T01:45:40;100810.19;;;22.24;42.53
60974;BME280;46846;51.528;5.076;2022-07-26T01:48:06;100807.47;;;22.24;42.35
60974;BME280;46846;51.528;5.076;2022-07-26T01:50:33;100807.88;;;22.20;42.32
60974;BME280;46846;51.528;5.076;2022-07-26T01:52:58;100815.84;;;22.21;42.53
60974;BME280;46846;51.528;5.076;2022-07-26T01:55:23;100813.53;;;22.17;42.66
60974;BME280;46846;51.528;5.076;2022-07-26T01:57:49;100817.13;;;22.17;42.46
60974;BME280;46846;51.528;5.076;2022-07-26T02:00:14;100817.38;;;22.14;42.64
60974;BME280;46846;51.528;5.076;2022-07-26T02:02:40;100823.66;;;22.15;42.66
60974;BME280;46846;51.528;5.076;2022-07-26T02:05:05;100816.66;;;22.12;42.86
60974;BME280;46846;51.528;5.076;2022-07-26T02:07:37;100825.16;;;22.07;42.74
60974;BME280;46846;51.528;5.076;2022-07-26T02:10:05;100827.16;;;22.05;42.48
60974;BME280;46846;51.528;5.076;2022-07-26T02:12:30;100825.56;;;22.03;42.85
60974;BME280;46846;51.528;5.076;2022-07-26T02:14:56;100833.53;;;22.04;42.85
60974;BME280;46846;51.528;5.076;2022-07-26T02:17:21;100826.53;;;22.02;42.98
60974;BME280;46846;51.528;5.076;2022-07-26T02:19:46;100824.06;;;21.98;43.11
60974;BME280;46846;51.528;5.076;2022-07-26T02:22:12;100829.50;;;21.98;42.58
60974;BME280;46846;51.528;5.076;2022-07-26T02:24:38;100824.06;;;21.98;42.75
60974;BME280;46846;51.528;5.076;2022-07-26T02:27:04;100827.78;;;21.97;43.18
60974;BME280;46846;51.528;5.076;2022-07-26T02:29:30;100828.75;;;21.96;43.44
60974;BME280;46846;51.528;5.076;2022-07-26T02:31:56;100833.19;;;21.97;42.66
60974;BME280;46846;51.528;5.076;2022-07-26T02:34:21;100833.47;;;21.94;42.90
60974;BME280;46846;51.528;5.076;2022-07-26T02:36:46;100833.47;;;21.94;43.00
60974;BME280;46846;51.528;5.076;2022-07-26T02:39:12;100831.25;;;21.88;43.09
60974;BME280;46846;51.528;5.076;2022-07-26T02:41:38;100840.38;;;21.87;42.63
60974;BME280;46846;51.528;5.076;2022-07-26T02:44:05;100844.06;;;21.86;43.10
60974;BME280;46846;51.528;5.076;2022-07-26T02:46:31;100848.63;;;21.85;43.23
60974;BME280;46846;51.528;5.076;2022-07-26T02:48:56;100840.59;;;21.84;43.24
60974;BME280;46846;51.528;5.076;2022-07-26T02:51:22;100849.84;;;21.81;43.17
60974;BME280;46846;51.528;5.076;2022-07-26T02:53:47;100851.44;;;21.84;43.32
60974;BME280;46846;51.528;5.076;2022-07-26T02:56:12;100861.81;;;21.79;43.21
60974;BME280;46846;51.528;5.076;2022-07-26T02:58:38;100862.06;;;21.76;43.33
60974;BME280;46846;51.528;5.076;2022-07-26T03:01:03;100853.94;;;21.76;43.17
60974;BME280;46846;51.528;5.076;2022-07-26T03:03:29;100864.03;;;21.74;43.57
60974;BME280;46846;51.528;5.076;2022-07-26T03:05:54;100856.13;;;21.70;43.48
60974;BME280;46846;51.528;5.076;2022-07-26T03:08:19;100859.94;;;21.68;43.38
60974;BME280;46846;51.528;5.076;2022-07-26T03:10:45;100859.94;;;21.68;43.69
60974;BME280;46846;51.528;5.076;2022-07-26T03:13:10;100860.19;;;21.65;43.43
60974;BME280;46846;51.528;5.076;2022-07-26T03:15:36;100862.16;;;21.63;43.17
60974;BME280;46846;51.528;5.076;2022-07-26T03:18:01;100865.72;;;21.63;43.53
60974;BME280;46846;51.528;5.076;2022-07-26T03:20:26;100864.88;;;21.63;43.58
60974;BME280;46846;51.528;5.076;2022-07-26T03:22:52;100864.16;;;21.61;43.53
60974;BME280;46846;51.528;5.076;2022-07-26T03:25:17;100870.66;;;21.58;43.66
60974;BME280;46846;51.528;5.076;2022-07-26T03:27:43;100869.78;;;21.57;43.33
60974;BME280;46846;51.528;5.076;2022-07-26T03:30:09;100871.88;;;21.54;43.67
60974;BME280;46846;51.528;5.076;2022-07-26T03:32:34;100873.75;;;21.53;43.98
60974;BME280;46846;51.528;5.076;2022-07-26T03:35:00;100876.56;;;21.52;43.63
60974;BME280;46846;51.528;5.076;2022-07-26T03:37:25;100878.56;;;21.50;43.53
60974;BME280;46846;51.528;5.076;2022-07-26T03:39:51;100880.38;;;21.49;43.77
60974;BME280;46846;51.528;5.076;2022-07-26T03:42:16;100885.91;;;21.48;44.00
60974;BME280;46846;51.528;5.076;2022-07-26T03:44:42;100883.09;;;21.49;43.88
60974;BME280;46846;51.528;5.076;2022-07-26T03:47:07;100885.91;;;21.48;43.75
60974;BME280;46846;51.528;5.076;2022-07-26T03:49:33;100889.00;;;21.43;43.92
60974;BME280;46846;51.528;5.076;2022-07-26T03:51:58;100891.69;;;21.43;43.97
60974;BME280;46846;51.528;5.076;2022-07-26T03:54:24;100889.13;;;21.41;43.69
60974;BME280;46846;51.528;5.076;2022-07-26T03:56:50;100887.38;;;21.40;43.62
60974;BME280;46846;51.528;5.076;2022-07-26T03:59:15;100892.94;;;21.39;44.10
60974;BME280;46846;51.528;5.076;2022-07-26T04:01:43;100891.34;;;21.36;43.90
60974;BME280;46846;51.528;5.076;2022-07-26T04:04:12;100888.63;;;21.36;43.93
60974;BME280;46846;51.528;5.076;2022-07-26T04:06:39;100891.44;;;21.35;44.02
60974;BME280;46846;51.528;5.076;2022-07-26T04:09:06;100886.16;;;21.33;43.95
60974;BME280;46846;51.528;5.076;2022-07-26T04:11:32;100896.03;;;21.34;43.97
60974;BME280;46846;51.528;5.076;2022-07-26T04:13:58;100893.31;;;21.34;44.10
60974;BME280;46846;51.528;5.076;2022-07-26T04:16:24;100891.81;;;21.30;44.12
60974;BME280;46846;51.528;5.076;2022-07-26T04:18:49;100902.66;;;21.30;43.86
60974;BME280;46846;51.528;5.076;2022-07-26T04:21:15;100900.19;;;21.27;44.35
60974;BME280;46846;51.528;5.076;2022-07-26T04:23:40;100900.19;;;21.27;44.18
60974;BME280;46846;51.528;5.076;2022-07-26T04:26:06;100905.72;;;21.25;44.77
60974;BME280;46846;51.528;5.076;2022-07-26T04:28:31;100906.72;;;21.24;44.48
60974;BME280;46846;51.528;5.076;2022-07-26T04:30:58;100904.13;;;21.23;44.52
60974;BME280;46846;51.528;5.076;2022-07-26T04:33:24;100895.25;;;21.21;44.55
60974;BME280;46846;51.528;5.076;2022-07-26T04:35:50;100902.75;;;21.17;44.47
60974;BME280;46846;51.528;5.076;2022-07-26T04:38:15;100905.56;;;21.15;44.45
60974;BME280;46846;51.528;5.076;2022-07-26T04:40:41;100903.84;;;21.14;44.28
60974;BME280;46846;51.528;5.076;2022-07-26T04:43:07;100902.97;;;21.14;44.32
60974;BME280;46846;51.528;5.076;2022-07-26T04:45:32;100909.38;;;21.13;44.60
60974;BME280;46846;51.528;5.076;2022-07-26T04:47:57;100909.38;;;21.13;44.64
60974;BME280;46846;51.528;5.076;2022-07-26T04:50:24;100910.47;;;21.10;44.45
60974;BME280;46846;51.528;5.076;2022-07-26T04:52:52;100913.19;;;21.10;44.56
60974;BME280;46846;51.528;5.076;2022-07-26T04:55:18;100909.63;;;21.10;44.58
60974;BME280;46846;51.528;5.076;2022-07-26T04:57:44;100911.59;;;21.08;44.45
60974;BME280;46846;51.528;5.076;2022-07-26T05:00:11;100912.44;;;21.08;44.54
60974;BME280;46846;51.528;5.076;2022-07-26T05:02:37;100925.13;;;21.08;44.93
60974;BME280;46846;51.528;5.076;2022-07-26T05:05:04;100926.84;;;21.09;44.88
60974;BME280;46846;51.528;5.076;2022-07-26T05:07:44;100926.97;;;21.07;44.73
60974;BME280;46846;51.528;5.076;2022-07-26T05:10:10;100927.69;;;21.09;45.22
60974;BME280;46846;51.528;5.076;2022-07-26T05:12:36;100925.97;;;21.08;45.28
60974;BME280;46846;51.528;5.076;2022-07-26T05:15:02;100931.91;;;21.13;45.43
60974;BME280;46846;51.528;5.076;2022-07-26T05:17:28;100931.03;;;21.13;45.90
60974;BME280;46846;51.528;5.076;2022-07-26T05:19:53;100934.50;;;21.15;45.18
60974;BME280;46846;51.528;5.076;2022-07-26T05:22:18;100943.25;;;21.19;45.37
60974;BME280;46846;51.528;5.076;2022-07-26T05:24:44;100943.25;;;21.19;44.99
60974;BME280;46846;51.528;5.076;2022-07-26T05:27:09;100950.38;;;21.20;45.05
60974;BME280;46846;51.528;5.076;2022-07-26T05:29:34;100951.97;;;21.22;45.28
60974;BME280;46846;51.528;5.076;2022-07-26T05:32:00;100943.97;;;21.21;45.21
60974;BME280;46846;51.528;5.076;2022-07-26T05:34:25;100953.19;;;21.18;45.53
60974;BME280;46846;51.528;5.076;2022-07-26T05:36:51;100950.38;;;21.20;45.31
60974;BME280;46846;51.528;5.076;2022-07-26T05:39:16;100951.34;;;21.19;45.52
60974;BME280;46846;51.528;5.076;2022-07-26T05:41:41;100946.91;;;21.17;45.54
60974;BME280;46846;51.528;5.076;2022-07-26T05:44:07;100956.47;;;21.10;45.51
60974;BME280;46846;51.528;5.076;2022-07-26T05:46:34;100952.66;;;21.13;45.97
60974;BME280;46846;51.528;5.076;2022-07-26T05:49:02;100953.53;;;21.13;45.50
60974;BME280;46846;51.528;5.076;2022-07-26T05:51:27;100955.16;;;21.16;45.74
60974;BME280;46846;51.528;5.076;2022-07-26T05:53:54;100965.38;;;21.24;46.88
60974;BME280;46846;51.528;5.076;2022-07-26T05:56:20;100965.50;;;21.22;46.63
60974;BME280;46846;51.528;5.076;2022-07-26T05:58:45;100967.91;;;21.14;46.10
60974;BME280;46846;51.528;5.076;2022-07-26T06:01:10;100977.66;;;21.16;46.03
60974;BME280;46846;51.528;5.076;2022-07-26T06:03:36;100962.19;;;21.19;45.57
60974;BME280;46846;51.528;5.076;2022-07-26T06:06:01;100976.34;;;21.22;45.68
60974;BME280;46846;51.528;5.076;2022-07-26T06:08:27;100974.25;;;21.26;46.02
60974;BME280;46846;51.528;5.076;2022-07-26T06:10:52;100979.31;;;21.30;45.35
60974;BME280;46846;51.528;5.076;2022-07-26T06:13:18;100972.03;;;21.31;45.47
60974;BME280;46846;51.528;5.076;2022-07-26T06:15:44;100970.81;;;21.35;45.45
60974;BME280;46846;51.528;5.076;2022-07-26T06:18:10;100971.66;;;21.36;47.82
60974;BME280;46846;51.528;5.076;2022-07-26T06:20:40;100979.94;;;21.34;45.17
60974;BME280;46846;51.528;5.076;2022-07-26T06:23:05;100976.97;;;21.37;45.15
60974;BME280;46846;51.528;5.076;2022-07-26T06:25:31;100978.69;;;21.38;45.31
60974;BME280;46846;51.528;5.076;2022-07-26T06:27:56;100977.84;;;21.38;45.21
60974;BME280;46846;51.528;5.076;2022-07-26T06:30:22;100978.94;;;21.47;47.66
60974;BME280;46846;51.528;5.076;2022-07-26T06:32:47;100987.81;;;21.49;46.69
60974;BME280;46846;51.528;5.076;2022-07-26T06:35:13;100991.84;;;21.43;45.05
60974;BME280;46846;51.528;5.076;2022-07-26T06:37:40;100984.72;;;21.42;45.29
60974;BME280;46846;51.528;5.076;2022-07-26T06:40:06;101003.44;;;21.45;45.58
60974;BME280;46846;51.528;5.076;2022-07-26T06:42:32;101001.34;;;21.49;46.09
60974;BME280;46846;51.528;5.076;2022-07-26T06:44:59;101008.72;;;21.47;45.51
60974;BME280;46846;51.528;5.076;2022-07-26T06:47:25;101003.69;;;21.53;45.16
60974;BME280;46846;51.528;5.076;2022-07-26T06:49:51;101008.88;;;21.56;45.23
60974;BME280;46846;51.528;5.076;2022-07-26T06:52:16;101006.88;;;21.58;45.29
60974;BME280;46846;51.528;5.076;2022-07-26T06:54:42;101021.31;;;21.59;45.03
60974;BME280;46846;51.528;5.076;2022-07-26T06:57:07;101011.47;;;21.58;45.08
60974;BME280;46846;51.528;5.076;2022-07-26T06:59:33;101019.47;;;21.60;45.16
60974;BME280;46846;51.528;5.076;2022-07-26T07:01:58;101019.09;;;21.64;45.19
60974;BME280;46846;51.528;5.076;2022-07-26T07:04:27;101019.22;;;21.63;45.31
60974;BME280;46846;51.528;5.076;2022-07-26T07:06:53;101022.78;;;21.63;45.47
60974;BME280;46846;51.528;5.076;2022-07-26T07:09:18;101019.63;;;21.69;45.56
60974;BME280;46846;51.528;5.076;2022-07-26T07:11:44;101024.03;;;21.70;45.44
60974;BME280;46846;51.528;5.076;2022-07-26T07:14:10;101026.53;;;21.74;45.51
60974;BME280;46846;51.528;5.076;2022-07-26T07:16:35;101025.16;;;21.68;45.48
60974;BME280;46846;51.528;5.076;2022-07-26T07:19:00;101021.09;;;21.74;45.59
60974;BME280;46846;51.528;5.076;2022-07-26T07:21:26;101017.03;;;21.79;45.58
60974;BME280;46846;51.528;5.076;2022-07-26T07:23:51;101029.38;;;21.83;45.71
60974;BME280;46846;51.528;5.076;2022-07-26T07:26:17;101028.88;;;21.90;45.46
60974;BME280;46846;51.528;5.076;2022-07-26T07:28:44;101023.94;;;21.95;45.26
60974;BME280;46846;51.528;5.076;2022-07-26T07:31:09;101025.44;;;21.99;45.27
60974;BME280;46846;51.528;5.076;2022-07-26T07:33:35;101029.50;;;22.05;45.25
60974;BME280;46846;51.528;5.076;2022-07-26T07:36:00;101033.56;;;21.99;45.40
60974;BME280;46846;51.528;5.076;2022-07-26T07:38:26;101037.63;;;21.93;45.35
60974;BME280;46846;51.528;5.076;2022-07-26T07:40:52;101048.47;;;21.93;45.50
60974;BME280;46846;51.528;5.076;2022-07-26T07:43:18;101042.91;;;21.95;45.57
60974;BME280;46846;51.528;5.076;2022-07-26T07:45:43;101038.47;;;21.94;45.58
60974;BME280;46846;51.528;5.076;2022-07-26T07:48:09;101057.69;;;21.91;45.67
60974;BME280;46846;51.528;5.076;2022-07-26T07:50:35;101060.25;;;21.92;45.69
60974;BME280;46846;51.528;5.076;2022-07-26T07:53:01;101063.38;;;21.99;45.68
60974;BME280;46846;51.528;5.076;2022-07-26T07:55:26;101066.53;;;22.04;45.58
60974;BME280;46846;51.528;5.076;2022-07-26T07:57:52;101049.44;;;22.04;45.74
60974;BME280;46846;51.528;5.076;2022-07-26T08:00:17;101048.09;;;22.09;46.01
60974;BME280;46846;51.528;5.076;2022-07-26T08:02:46;101054.38;;;22.10;45.60
60974;BME280;46846;51.528;5.076;2022-07-26T08:05:12;101057.94;;;22.10;45.71
60974;BME280;46846;51.528;5.076;2022-07-26T08:07:38;101064.72;;;22.16;45.76
60974;BME280;46846;51.528;5.076;2022-07-26T08:10:04;101070.63;;;22.21;46.06
60974;BME280;46846;51.528;5.076;2022-07-26T08:12:30;101067.06;;;22.21;46.27
60974;BME280;46846;51.528;5.076;2022-07-26T08:14:55;101068.91;;;22.32;47.27
60974;BME280;46846;51.528;5.076;2022-07-26T08:17:21;101074.06;;;22.35;47.59
60974;BME280;46846;51.528;5.076;2022-07-26T08:19:46;101066.69;;;22.25;48.39
60974;BME280;46846;51.528;5.076;2022-07-26T08:22:12;101072.63;;;22.31;48.40
60974;BME280;46846;51.528;5.076;2022-07-26T08:24:37;101074.06;;;22.35;47.99
60974;BME280;46846;51.528;5.076;2022-07-26T08:27:03;101079.84;;;22.42;47.64
60974;BME280;46846;51.528;5.076;2022-07-26T08:29:28;101081.72;;;22.52;48.19
60974;BME280;46846;51.528;5.076;2022-07-26T08:31:54;101073.81;;;22.49;47.20
60974;BME280;46846;51.528;5.076;2022-07-26T08:34:19;101086.03;;;22.55;46.92
60974;BME280;46846;51.528;5.076;2022-07-26T08:36:46;101082.31;;;22.56;47.01
60974;BME280;46846;51.528;5.076;2022-07-26T08:39:11;101089.84;;;22.52;46.63
60974;BME280;46846;51.528;5.076;2022-07-26T08:41:37;101088.75;;;22.55;46.76
60974;BME280;46846;51.528;5.076;2022-07-26T08:44:06;101090.59;;;22.55;46.47
60974;BME280;46846;51.528;5.076;2022-07-26T08:46:34;101097.50;;;22.59;46.54
60974;BME280;46846;51.528;5.076;2022-07-26T08:49:00;101092.44;;;22.54;46.52
60974;BME280;46846;51.528;5.076;2022-07-26T08:51:26;101091.84;;;22.62;46.34
60974;BME280;46846;51.528;5.076;2022-07-26T08:53:54;101091.56;;;22.65;46.11
60974;BME280;46846;51.528;5.076;2022-07-26T08:56:20;101097.47;;;22.70;46.02
60974;BME280;46846;51.528;5.076;2022-07-26T08:58:45;101100.31;;;22.69;45.94
60974;BME280;46846;51.528;5.076;2022-07-26T09:01:11;101097.94;;;22.75;46.15
60974;BME280;46846;51.528;5.076;2022-07-26T09:03:37;101100.41;;;22.78;46.16
60974;BME280;46846;51.528;5.076;2022-07-26T09:06:20;101104.34;;;22.86;45.66
60974;BME280;46846;51.528;5.076;2022-07-26T09:08:51;101101.53;;;22.87;45.89
60974;BME280;46846;51.528;5.076;2022-07-26T09:13:55;101109.28;;;22.80;45.96
60974;BME280;46846;51.528;5.076;2022-07-26T09:16:20;101119.16;;;22.81;45.99
60974;BME280;46846;51.528;5.076;2022-07-26T09:18:46;101120.03;;;22.82;46.05
60974;BME280;46846;51.528;5.076;2022-07-26T09:21:28;101127.28;;;22.81;45.83
60974;BME280;46846;51.528;5.076;2022-07-26T09:23:54;101132.25;;;22.76;46.18
60974;BME280;46846;51.528;5.076;2022-07-26T09:26:20;101139.41;;;22.77;46.60
60974;BME280;46846;51.528;5.076;2022-07-26T09:29:00;101140.00;;;22.81;46.55
60974;BME280;46846;51.528;5.076;2022-07-26T09:31:25;101141.47;;;22.85;46.52
60974;BME280;46846;51.528;5.076;2022-07-26T09:33:51;101145.78;;;22.88;46.70
60974;BME280;46846;51.528;5.076;2022-07-26T09:36:17;101149.47;;;22.87;46.65
60974;BME280;46846;51.528;5.076;2022-07-26T09:38:48;101144.94;;;22.87;46.71
60974;BME280;46846;51.528;5.076;2022-07-26T09:41:22;101148.59;;;22.86;46.63
60974;BME280;46846;51.528;5.076;2022-07-26T09:43:49;101152.09;;;22.88;46.88
60974;BME280;46846;51.528;5.076;2022-07-26T09:46:15;101153.53;;;22.92;46.72
60974;BME280;46846;51.528;5.076;2022-07-26T09:48:41;101155.03;;;22.97;47.00
60974;BME280;46846;51.528;5.076;2022-07-26T09:51:07;101152.03;;;23.00;46.93
60974;BME280;46846;51.528;5.076;2022-07-26T09:53:40;101155.25;;;23.05;46.85
60974;BME280;46846;51.528;5.076;2022-07-26T09:56:06;101155.38;;;23.03;47.30
60974;BME280;46846;51.528;5.076;2022-07-26T09:58:32;101157.34;;;23.01;46.69
60974;BME280;46846;51.528;5.076;2022-07-26T10:00:58;101162.78;;;23.01;47.25
60974;BME280;46846;51.528;5.076;2022-07-26T10:03:23;101165.88;;;22.97;46.84
60974;BME280;46846;51.528;5.076;2022-07-26T10:05:48;101171.66;;;23.03;47.04
60974;BME280;46846;51.528;5.076;2022-07-26T10:08:14;101167.72;;;22.96;46.81
60974;BME280;46846;51.528;5.076;2022-07-26T10:10:45;101165.00;;;22.96;46.94
60974;BME280;46846;51.528;5.076;2022-07-26T10:13:12;101177.06;;;23.03;47.08
60974;BME280;46846;51.528;5.076;2022-07-26T10:18:08;101173.13;;;22.96;46.76
60974;BME280;46846;51.528;5.076;2022-07-26T10:23:43;101185.47;;;23.00;47.00
60974;BME280;46846;51.528;5.076;2022-07-26T10:26:12;101185.09;;;22.93;47.12
60974;BME280;46846;51.528;5.076;2022-07-26T10:31:40;101194.84;;;22.96;47.06
60974;BME280;46846;51.528;5.076;2022-07-26T10:34:06;101193.84;;;22.97;47.10
60974;BME280;46846;51.528;5.076;2022-07-26T10:36:33;101206.19;;;23.01;47.32
60974;BME280;46846;51.528;5.076;2022-07-26T10:39:11;101202.00;;;22.97;46.87
60974;BME280;46846;51.528;5.076;2022-07-26T10:41:45;101205.31;;;23.01;46.93
60974;BME280;46846;51.528;5.076;2022-07-26T10:44:26;101203.59;;;23.00;46.94
60974;BME280;46846;51.528;5.076;2022-07-26T10:49:53;101200.78;;;23.01;46.90
60974;BME280;46846;51.528;5.076;2022-07-26T10:52:29;101205.31;;;23.01;46.67
60974;BME280;46846;51.528;5.076;2022-07-26T10:57:28;101205.22;;;23.02;46.64
60974;BME280;46846;51.528;5.076;2022-07-26T10:59:54;101205.09;;;23.04;46.48
60974;BME280;46846;51.528;5.076;2022-07-26T11:02:28;101211.25;;;23.06;46.41
60974;BME280;46846;51.528;5.076;2022-07-26T11:05:07;101213.34;;;23.02;46.43
60974;BME280;46846;51.528;5.076;2022-07-26T11:07:49;101214.22;;;23.03;46.37
60974;BME280;46846;51.528;5.076;2022-07-26T11:10:15;101211.38;;;23.04;46.18
60974;BME280;46846;51.528;5.076;2022-07-26T11:12:41;101214.56;;;23.10;46.11
60974;BME280;46846;51.528;5.076;2022-07-26T11:15:16;101216.28;;;23.11;46.01
60974;BME280;46846;51.528;5.076;2022-07-26T11:17:42;101215.31;;;23.12;46.00
60974;BME280;46846;51.528;5.076;2022-07-26T11:20:08;101210.63;;;23.14;45.81
60974;BME280;46846;51.528;5.076;2022-07-26T11:22:33;101213.19;;;23.15;45.89
60974;BME280;46846;51.528;5.076;2022-07-26T11:25:00;101212.34;;;23.15;45.72
60974;BME280;46846;51.528;5.076;2022-07-26T11:27:25;101208.41;;;23.07;45.76
60974;BME280;46846;51.528;5.076;2022-07-26T11:29:51;101210.63;;;23.14;45.90
60974;BME280;46846;51.528;5.076;2022-07-26T11:32:20;101205.06;;;23.15;46.01
60974;BME280;46846;51.528;5.076;2022-07-26T11:34:46;101204.66;;;23.20;45.82
60974;BME280;46846;51.528;5.076;2022-07-26T11:37:12;101218.63;;;23.15;45.66
60974;BME280;46846;51.528;5.076;2022-07-26T11:39:38;101213.81;;;23.19;46.21
60974;BME280;46846;51.528;5.076;2022-07-26T11:42:05;101215.41;;;23.21;45.71
60974;BME280;46846;51.528;5.076;2022-07-26T11:44:32;101218.00;;;23.23;45.64
60974;BME280;46846;51.528;5.076;2022-07-26T11:46:59;101218.84;;;23.24;45.52
60974;BME280;46846;51.528;5.076;2022-07-26T11:49:29;101225.16;;;23.24;45.47
60974;BME280;46846;51.528;5.076;2022-07-26T11:51:58;101217.00;;;23.24;45.56
60974;BME280;46846;51.528;5.076;2022-07-26T11:54:29;101220.84;;;23.21;45.51
60974;BME280;46846;51.528;5.076;2022-07-26T11:57:00;101235.78;;;23.16;45.65
60974;BME280;46846;51.528;5.076;2022-07-26T11:59:30;101236.91;;;23.13;45.96
60974;BME280;46846;51.528;5.076;2022-07-26T12:01:58;101245.03;;;23.13;45.91
60974;BME280;46846;51.528;5.076;2022-07-26T12:04:31;101240.50;;;23.14;46.07
60974;BME280;46846;51.528;5.076;2022-07-26T12:06:59;101244.94;;;23.15;46.51
60974;BME280;46846;51.528;5.076;2022-07-26T12:09:38;101242.94;;;23.17;46.56
60974;BME280;46846;51.528;5.076;2022-07-26T12:12:07;101248.03;;;23.10;46.88
60974;BME280;46846;51.528;5.076;2022-07-26T12:14:34;101243.19;;;23.14;46.92
60974;BME280;46846;51.528;5.076;2022-07-26T12:17:11;101250.59;;;23.12;46.97
60974;BME280;46846;51.528;5.076;2022-07-26T12:19:37;101240.72;;;23.11;47.35
60974;BME280;46846;51.528;5.076;2022-07-26T12:22:11;101234.31;;;23.12;47.41
60974;BME280;46846;51.528;5.076;2022-07-26T12:30:12;101240.97;;;23.07;48.06
60974;BME280;46846;51.528;5.076;2022-07-26T12:32:41;101247.13;;;23.10;47.86
60974;BME280;46846;51.528;5.076;2022-07-26T12:35:16;101241.72;;;23.10;48.03
60974;BME280;46846;51.528;5.076;2022-07-26T12:40:17;101242.47;;;23.00;48.27
60974;BME280;46846;51.528;5.076;2022-07-26T12:42:58;101240.22;;;23.05;48.12
60974;BME280;46846;51.528;5.076;2022-07-26T12:45:26;101241.38;;;23.03;48.30
60974;BME280;46846;51.528;5.076;2022-07-26T12:47:53;101245.91;;;23.02;48.25
60974;BME280;46846;51.528;5.076;2022-07-26T12:50:21;101239.75;;;23.00;48.03
60974;BME280;46846;51.528;5.076;2022-07-26T12:52:48;101249.38;;;22.93;47.84
60974;BME280;46846;51.528;5.076;2022-07-26T12:55:15;101248.38;;;22.94;48.04
60974;BME280;46846;51.528;5.076;2022-07-26T12:57:42;101244.94;;;22.92;47.90
60974;BME280;46846;51.528;5.076;2022-07-26T13:00:09;101257.03;;;22.88;47.81
60974;BME280;46846;51.528;5.076;2022-07-26T13:02:39;101255.06;;;22.78;48.08
60974;BME280;46846;51.528;5.076;2022-07-26T13:05:05;101250.47;;;22.79;48.21
60974;BME280;46846;51.528;5.076;2022-07-26T13:07:31;101253.81;;;22.83;47.94
60974;BME280;46846;51.528;5.076;2022-07-26T13:09:56;101248.16;;;22.86;47.68
60974;BME280;46846;51.528;5.076;2022-07-26T13:12:22;101257.91;;;22.88;47.26